sensor_id;sensor_type;location;lat;lon;timestamp;P1;durP1;ratioP1;P2;durP2;ratioP2
53036;SDS011;38924;52.134;4.666;2022-11-20T00:00:55;17.92;;;14.18;;
53036;SDS011;38924;52.134;4.666;2022-11-20T00:03:21;17.88;;;13.43;;
53036;SDS011;38924;52.134;4.666;2022-11-20T00:05:46;24.17;;;13.93;;
53036;SDS011;38924;52.134;4.666;2022-11-20T00:08:12;22.25;;;14.55;;
53036;SDS011;38924;52.134;4.666;2022-11-20T00:10:38;19.15;;;13.38;;
53036;SDS011;38924;52.134;4.666;2022-11-20T00:13:05;21.42;;;14.48;;
53036;SDS011;38924;52.134;4.666;2022-11-20T00:15:33;22.77;;;15.35;;
53036;SDS011;38924;52.134;4.666;2022-11-20T00:18:02;17.38;;;12.65;;
53036;SDS011;38924;52.134;4.666;2022-11-20T00:20:30;20.02;;;14.85;;
53036;SDS011;38924;52.134;4.666;2022-11-20T00:22:56;19.70;;;14.98;;
53036;SDS011;38924;52.134;4.666;2022-11-20T00:25:22;19.10;;;14.27;;
53036;SDS011;38924;52.134;4.666;2022-11-20T00:27:50;20.08;;;15.65;;
53036;SDS011;38924;52.134;4.666;2022-11-20T00:30:16;19.25;;;14.35;;
53036;SDS011;38924;52.134;4.666;2022-11-20T00:32:41;23.02;;;15.10;;
53036;SDS011;38924;52.134;4.666;2022-11-20T00:35:07;20.55;;;14.27;;
53036;SDS011;38924;52.134;4.666;2022-11-20T00:37:32;20.40;;;14.52;;
53036;SDS011;38924;52.134;4.666;2022-11-20T00:39:58;21.67;;;13.95;;
53036;SDS011;38924;52.134;4.666;2022-11-20T00:42:24;23.13;;;14.40;;
53036;SDS011;38924;52.134;4.666;2022-11-20T00:44:49;20.80;;;15.95;;
53036;SDS011;38924;52.134;4.666;2022-11-20T00:47:15;23.70;;;15.25;;
53036;SDS011;38924;52.134;4.666;2022-11-20T00:49:41;24.95;;;16.63;;
53036;SDS011;38924;52.134;4.666;2022-11-20T00:52:07;21.80;;;15.43;;
53036;SDS011;38924;52.134;4.666;2022-11-20T00:54:32;20.92;;;15.77;;
53036;SDS011;38924;52.134;4.666;2022-11-20T00:56:58;19.38;;;15.20;;
53036;SDS011;38924;52.134;4.666;2022-11-20T00:59:24;20.65;;;15.05;;
53036;SDS011;38924;52.134;4.666;2022-11-20T01:01:49;20.95;;;15.57;;
53036;SDS011;38924;52.134;4.666;2022-11-20T01:04:15;23.60;;;16.90;;
53036;SDS011;38924;52.134;4.666;2022-11-20T01:06:41;24.83;;;17.73;;
53036;SDS011;38924;52.134;4.666;2022-11-20T01:09:10;24.38;;;15.95;;
53036;SDS011;38924;52.134;4.666;2022-11-20T01:11:37;23.60;;;17.13;;
53036;SDS011;38924;52.134;4.666;2022-11-20T01:14:06;23.80;;;17.20;;
53036;SDS011;38924;52.134;4.666;2022-11-20T01:16:34;21.95;;;15.48;;
53036;SDS011;38924;52.134;4.666;2022-11-20T01:19:06;22.65;;;14.57;;
53036;SDS011;38924;52.134;4.666;2022-11-20T01:21:33;22.77;;;14.75;;
53036;SDS011;38924;52.134;4.666;2022-11-20T01:23:59;22.90;;;14.60;;
53036;SDS011;38924;52.134;4.666;2022-11-20T01:26:26;21.38;;;16.10;;
53036;SDS011;38924;52.134;4.666;2022-11-20T01:28:52;25.33;;;16.83;;
53036;SDS011;38924;52.134;4.666;2022-11-20T01:31:23;21.75;;;14.75;;
53036;SDS011;38924;52.134;4.666;2022-11-20T01:33:50;20.50;;;15.45;;
53036;SDS011;38924;52.134;4.666;2022-11-20T01:36:17;20.08;;;16.35;;
53036;SDS011;38924;52.134;4.666;2022-11-20T01:38:43;21.33;;;15.90;;
53036;SDS011;38924;52.134;4.666;2022-11-20T01:41:09;31.30;;;19.60;;
53036;SDS011;38924;52.134;4.666;2022-11-20T01:43:35;46.03;;;23.52;;
53036;SDS011;38924;52.134;4.666;2022-11-20T01:46:17;41.38;;;23.20;;
53036;SDS011;38924;52.134;4.666;2022-11-20T01:48:54;39.42;;;21.58;;
53036;SDS011;38924;52.134;4.666;2022-11-20T01:51:24;33.75;;;20.70;;
53036;SDS011;38924;52.134;4.666;2022-11-20T01:53:52;34.40;;;19.77;;
53036;SDS011;38924;52.134;4.666;2022-11-20T01:56:19;36.67;;;20.45;;
53036;SDS011;38924;52.134;4.666;2022-11-20T01:58:48;38.30;;;21.75;;
53036;SDS011;38924;52.134;4.666;2022-11-20T02:01:15;34.88;;;20.48;;
53036;SDS011;38924;52.134;4.666;2022-11-20T02:03:41;26.92;;;17.10;;
53036;SDS011;38924;52.134;4.666;2022-11-20T02:06:12;24.90;;;17.70;;
53036;SDS011;38924;52.134;4.666;2022-11-20T02:08:38;26.45;;;17.52;;
53036;SDS011;38924;52.134;4.666;2022-11-20T02:11:08;28.27;;;17.95;;
53036;SDS011;38924;52.134;4.666;2022-11-20T02:13:34;27.33;;;19.30;;
53036;SDS011;38924;52.134;4.666;2022-11-20T02:16:30;24.80;;;17.90;;
53036;SDS011;38924;52.134;4.666;2022-11-20T02:18:55;23.48;;;16.35;;
53036;SDS011;38924;52.134;4.666;2022-11-20T02:26:39;23.20;;;16.08;;
53036;SDS011;38924;52.134;4.666;2022-11-20T02:29:05;21.42;;;15.73;;
53036;SDS011;38924;52.134;4.666;2022-11-20T02:31:38;23.00;;;16.27;;
53036;SDS011;38924;52.134;4.666;2022-11-20T02:34:04;22.02;;;16.20;;
53036;SDS011;38924;52.134;4.666;2022-11-20T02:36:29;22.63;;;16.05;;
53036;SDS011;38924;52.134;4.666;2022-11-20T02:38:56;24.73;;;15.43;;
53036;SDS011;38924;52.134;4.666;2022-11-20T02:41:21;24.83;;;16.55;;
53036;SDS011;38924;52.134;4.666;2022-11-20T02:43:47;23.20;;;15.95;;
53036;SDS011;38924;52.134;4.666;2022-11-20T02:46:13;21.13;;;15.68;;
53036;SDS011;38924;52.134;4.666;2022-11-20T02:48:38;21.67;;;16.52;;
53036;SDS011;38924;52.134;4.666;2022-11-20T02:51:04;24.65;;;17.20;;
53036;SDS011;38924;52.134;4.666;2022-11-20T02:53:30;22.77;;;17.30;;
53036;SDS011;38924;52.134;4.666;2022-11-20T02:55:55;24.25;;;17.85;;
53036;SDS011;38924;52.134;4.666;2022-11-20T02:58:21;22.88;;;16.13;;
53036;SDS011;38924;52.134;4.666;2022-11-20T03:00:47;23.35;;;16.77;;
53036;SDS011;38924;52.134;4.666;2022-11-20T03:03:12;24.25;;;17.45;;
53036;SDS011;38924;52.134;4.666;2022-11-20T03:05:38;21.75;;;15.60;;
53036;SDS011;38924;52.134;4.666;2022-11-20T03:08:04;26.08;;;16.48;;
53036;SDS011;38924;52.134;4.666;2022-11-20T03:10:30;24.52;;;18.08;;
53036;SDS011;38924;52.134;4.666;2022-11-20T03:12:55;22.63;;;16.20;;
53036;SDS011;38924;52.134;4.666;2022-11-20T03:15:24;24.85;;;18.35;;
53036;SDS011;38924;52.134;4.666;2022-11-20T03:17:53;21.98;;;15.85;;
53036;SDS011;38924;52.134;4.666;2022-11-20T03:20:20;27.58;;;18.27;;
53036;SDS011;38924;52.134;4.666;2022-11-20T03:22:46;24.33;;;16.60;;
53036;SDS011;38924;52.134;4.666;2022-11-20T03:25:11;22.08;;;15.98;;
53036;SDS011;38924;52.134;4.666;2022-11-20T03:27:37;23.85;;;17.95;;
53036;SDS011;38924;52.134;4.666;2022-11-20T03:30:03;26.48;;;17.90;;
53036;SDS011;38924;52.134;4.666;2022-11-20T03:32:29;24.67;;;17.67;;
53036;SDS011;38924;52.134;4.666;2022-11-20T03:34:54;24.33;;;17.35;;
53036;SDS011;38924;52.134;4.666;2022-11-20T03:37:20;24.27;;;17.15;;
53036;SDS011;38924;52.134;4.666;2022-11-20T03:39:46;25.95;;;17.48;;
53036;SDS011;38924;52.134;4.666;2022-11-20T03:42:11;22.95;;;16.83;;
53036;SDS011;38924;52.134;4.666;2022-11-20T03:44:56;22.98;;;16.70;;
53036;SDS011;38924;52.134;4.666;2022-11-20T03:47:21;22.30;;;16.60;;
53036;SDS011;38924;52.134;4.666;2022-11-20T03:49:47;28.08;;;17.30;;
53036;SDS011;38924;52.134;4.666;2022-11-20T03:52:13;25.10;;;17.38;;
53036;SDS011;38924;52.134;4.666;2022-11-20T03:54:39;20.92;;;16.58;;
53036;SDS011;38924;52.134;4.666;2022-11-20T03:57:04;23.52;;;16.67;;
53036;SDS011;38924;52.134;4.666;2022-11-20T03:59:30;26.92;;;18.15;;
53036;SDS011;38924;52.134;4.666;2022-11-20T04:01:55;28.17;;;18.48;;
53036;SDS011;38924;52.134;4.666;2022-11-20T04:04:21;24.63;;;18.45;;
53036;SDS011;38924;52.134;4.666;2022-11-20T04:06:47;24.92;;;16.95;;
53036;SDS011;38924;52.134;4.666;2022-11-20T04:09:13;24.23;;;16.80;;
53036;SDS011;38924;52.134;4.666;2022-11-20T04:11:39;29.75;;;19.30;;
53036;SDS011;38924;52.134;4.666;2022-11-20T04:14:06;25.23;;;17.73;;
53036;SDS011;38924;52.134;4.666;2022-11-20T04:16:32;23.52;;;17.17;;
53036;SDS011;38924;52.134;4.666;2022-11-20T04:18:59;23.38;;;16.30;;
53036;SDS011;38924;52.134;4.666;2022-11-20T04:21:25;24.55;;;17.45;;
53036;SDS011;38924;52.134;4.666;2022-11-20T04:23:51;23.95;;;17.27;;
53036;SDS011;38924;52.134;4.666;2022-11-20T04:26:18;29.15;;;16.52;;
53036;SDS011;38924;52.134;4.666;2022-11-20T04:28:44;22.60;;;16.13;;
53036;SDS011;38924;52.134;4.666;2022-11-20T04:31:13;23.48;;;16.60;;
53036;SDS011;38924;52.134;4.666;2022-11-20T04:33:39;21.30;;;16.52;;
53036;SDS011;38924;52.134;4.666;2022-11-20T04:36:10;19.70;;;15.35;;
53036;SDS011;38924;52.134;4.666;2022-11-20T04:38:36;25.05;;;16.60;;
53036;SDS011;38924;52.134;4.666;2022-11-20T04:41:03;26.08;;;16.10;;
53036;SDS011;38924;52.134;4.666;2022-11-20T04:43:29;23.88;;;16.55;;
53036;SDS011;38924;52.134;4.666;2022-11-20T04:45:55;25.58;;;17.65;;
53036;SDS011;38924;52.134;4.666;2022-11-20T04:48:21;26.83;;;17.95;;
53036;SDS011;38924;52.134;4.666;2022-11-20T04:50:47;22.58;;;16.98;;
53036;SDS011;38924;52.134;4.666;2022-11-20T04:53:13;23.35;;;17.10;;
53036;SDS011;38924;52.134;4.666;2022-11-20T04:55:39;25.35;;;17.35;;
53036;SDS011;38924;52.134;4.666;2022-11-20T04:58:05;28.55;;;17.00;;
53036;SDS011;38924;52.134;4.666;2022-11-20T05:00:30;25.02;;;15.55;;
53036;SDS011;38924;52.134;4.666;2022-11-20T05:02:56;23.80;;;16.48;;
53036;SDS011;38924;52.134;4.666;2022-11-20T05:05:21;25.45;;;17.77;;
53036;SDS011;38924;52.134;4.666;2022-11-20T05:07:47;25.88;;;17.02;;
53036;SDS011;38924;52.134;4.666;2022-11-20T05:10:13;24.50;;;16.30;;
53036;SDS011;38924;52.134;4.666;2022-11-20T05:12:39;28.17;;;18.58;;
53036;SDS011;38924;52.134;4.666;2022-11-20T05:15:04;25.33;;;17.33;;
53036;SDS011;38924;52.134;4.666;2022-11-20T05:17:30;20.70;;;15.70;;
53036;SDS011;38924;52.134;4.666;2022-11-20T05:19:56;26.05;;;17.52;;
53036;SDS011;38924;52.134;4.666;2022-11-20T05:22:22;24.52;;;16.42;;
53036;SDS011;38924;52.134;4.666;2022-11-20T05:24:48;25.35;;;17.25;;
53036;SDS011;38924;52.134;4.666;2022-11-20T05:27:13;25.23;;;17.08;;
53036;SDS011;38924;52.134;4.666;2022-11-20T05:29:40;25.05;;;17.25;;
53036;SDS011;38924;52.134;4.666;2022-11-20T05:32:05;25.30;;;16.23;;
53036;SDS011;38924;52.134;4.666;2022-11-20T05:34:34;26.08;;;17.83;;
53036;SDS011;38924;52.134;4.666;2022-11-20T05:36:59;25.83;;;17.02;;
53036;SDS011;38924;52.134;4.666;2022-11-20T05:39:28;27.23;;;18.27;;
53036;SDS011;38924;52.134;4.666;2022-11-20T05:41:55;28.90;;;17.20;;
53036;SDS011;38924;52.134;4.666;2022-11-20T05:44:40;27.25;;;16.80;;
53036;SDS011;38924;52.134;4.666;2022-11-20T05:47:05;30.17;;;17.27;;
53036;SDS011;38924;52.134;4.666;2022-11-20T05:49:31;27.33;;;18.83;;
53036;SDS011;38924;52.134;4.666;2022-11-20T05:51:57;30.60;;;18.23;;
53036;SDS011;38924;52.134;4.666;2022-11-20T05:54:22;26.33;;;18.13;;
53036;SDS011;38924;52.134;4.666;2022-11-20T05:56:48;25.08;;;17.05;;
53036;SDS011;38924;52.134;4.666;2022-11-20T05:59:14;25.23;;;17.00;;
53036;SDS011;38924;52.134;4.666;2022-11-20T06:01:39;26.70;;;16.67;;
53036;SDS011;38924;52.134;4.666;2022-11-20T06:04:05;27.65;;;18.42;;
53036;SDS011;38924;52.134;4.666;2022-11-20T06:06:31;28.73;;;19.02;;
53036;SDS011;38924;52.134;4.666;2022-11-20T06:08:56;25.30;;;16.92;;
53036;SDS011;38924;52.134;4.666;2022-11-20T06:11:25;28.52;;;17.55;;
53036;SDS011;38924;52.134;4.666;2022-11-20T06:13:50;24.00;;;17.10;;
53036;SDS011;38924;52.134;4.666;2022-11-20T06:16:17;32.00;;;17.30;;
53036;SDS011;38924;52.134;4.666;2022-11-20T06:18:44;30.33;;;17.63;;
53036;SDS011;38924;52.134;4.666;2022-11-20T06:21:11;27.42;;;16.95;;
53036;SDS011;38924;52.134;4.666;2022-11-20T06:23:40;27.52;;;18.00;;
53036;SDS011;38924;52.134;4.666;2022-11-20T06:26:10;31.75;;;17.05;;
53036;SDS011;38924;52.134;4.666;2022-11-20T06:28:36;23.30;;;16.95;;
53036;SDS011;38924;52.134;4.666;2022-11-20T06:31:02;27.83;;;17.50;;
53036;SDS011;38924;52.134;4.666;2022-11-20T06:33:28;30.23;;;18.92;;
53036;SDS011;38924;52.134;4.666;2022-11-20T06:35:57;24.35;;;17.73;;
53036;SDS011;38924;52.134;4.666;2022-11-20T06:38:24;35.38;;;19.48;;
53036;SDS011;38924;52.134;4.666;2022-11-20T06:40:49;28.83;;;18.02;;
53036;SDS011;38924;52.134;4.666;2022-11-20T06:43:15;26.50;;;18.05;;
53036;SDS011;38924;52.134;4.666;2022-11-20T06:45:41;26.77;;;17.17;;
53036;SDS011;38924;52.134;4.666;2022-11-20T06:48:06;27.65;;;19.65;;
53036;SDS011;38924;52.134;4.666;2022-11-20T06:50:32;28.50;;;20.05;;
53036;SDS011;38924;52.134;4.666;2022-11-20T06:53:00;28.45;;;17.88;;
53036;SDS011;38924;52.134;4.666;2022-11-20T06:55:26;27.00;;;17.55;;
53036;SDS011;38924;52.134;4.666;2022-11-20T06:57:52;28.88;;;18.23;;
53036;SDS011;38924;52.134;4.666;2022-11-20T07:00:17;29.17;;;18.08;;
53036;SDS011;38924;52.134;4.666;2022-11-20T07:02:44;33.45;;;19.73;;
53036;SDS011;38924;52.134;4.666;2022-11-20T07:05:09;28.55;;;19.02;;
53036;SDS011;38924;52.134;4.666;2022-11-20T07:07:35;25.58;;;17.20;;
53036;SDS011;38924;52.134;4.666;2022-11-20T07:10:01;26.50;;;16.95;;
53036;SDS011;38924;52.134;4.666;2022-11-20T07:12:26;26.35;;;17.88;;
53036;SDS011;38924;52.134;4.666;2022-11-20T07:14:52;26.88;;;17.63;;
53036;SDS011;38924;52.134;4.666;2022-11-20T07:17:18;59.60;;;30.33;;
53036;SDS011;38924;52.134;4.666;2022-11-20T07:19:44;31.23;;;21.27;;
53036;SDS011;38924;52.134;4.666;2022-11-20T07:22:09;24.27;;;17.63;;
53036;SDS011;38924;52.134;4.666;2022-11-20T07:24:35;28.23;;;17.02;;
53036;SDS011;38924;52.134;4.666;2022-11-20T07:27:01;57.38;;;30.30;;
53036;SDS011;38924;52.134;4.666;2022-11-20T07:29:26;37.30;;;22.90;;
53036;SDS011;38924;52.134;4.666;2022-11-20T07:31:52;26.38;;;18.63;;
53036;SDS011;38924;52.134;4.666;2022-11-20T07:34:17;30.75;;;20.88;;
53036;SDS011;38924;52.134;4.666;2022-11-20T07:36:43;27.63;;;19.23;;
53036;SDS011;38924;52.134;4.666;2022-11-20T07:39:09;26.25;;;18.63;;
53036;SDS011;38924;52.134;4.666;2022-11-20T07:41:35;23.38;;;16.80;;
53036;SDS011;38924;52.134;4.666;2022-11-20T07:44:00;25.20;;;16.80;;
53036;SDS011;38924;52.134;4.666;2022-11-20T07:46:26;30.20;;;18.00;;
53036;SDS011;38924;52.134;4.666;2022-11-20T07:48:52;28.05;;;18.33;;
53036;SDS011;38924;52.134;4.666;2022-11-20T07:51:17;27.17;;;18.30;;
53036;SDS011;38924;52.134;4.666;2022-11-20T07:53:43;24.90;;;17.85;;
53036;SDS011;38924;52.134;4.666;2022-11-20T07:56:09;25.90;;;18.15;;
53036;SDS011;38924;52.134;4.666;2022-11-20T07:58:35;24.60;;;18.05;;
53036;SDS011;38924;52.134;4.666;2022-11-20T08:01:04;27.15;;;18.30;;
53036;SDS011;38924;52.134;4.666;2022-11-20T08:03:30;28.55;;;18.77;;
53036;SDS011;38924;52.134;4.666;2022-11-20T08:05:58;24.55;;;17.85;;
53036;SDS011;38924;52.134;4.666;2022-11-20T08:08:23;27.95;;;18.60;;
53036;SDS011;38924;52.134;4.666;2022-11-20T08:10:49;28.95;;;20.48;;
53036;SDS011;38924;52.134;4.666;2022-11-20T08:13:15;25.30;;;18.35;;
53036;SDS011;38924;52.134;4.666;2022-11-20T08:15:59;26.98;;;18.17;;
53036;SDS011;38924;52.134;4.666;2022-11-20T08:18:25;28.48;;;19.63;;
53036;SDS011;38924;52.134;4.666;2022-11-20T08:20:51;32.80;;;20.67;;
53036;SDS011;38924;52.134;4.666;2022-11-20T08:23:16;32.30;;;18.98;;
53036;SDS011;38924;52.134;4.666;2022-11-20T08:25:48;27.35;;;18.95;;
53036;SDS011;38924;52.134;4.666;2022-11-20T08:28:17;28.20;;;18.90;;
53036;SDS011;38924;52.134;4.666;2022-11-20T08:30:43;27.88;;;18.92;;
53036;SDS011;38924;52.134;4.666;2022-11-20T08:33:08;28.27;;;18.50;;
53036;SDS011;38924;52.134;4.666;2022-11-20T08:35:35;29.52;;;19.98;;
53036;SDS011;38924;52.134;4.666;2022-11-20T08:38:01;28.55;;;20.80;;
53036;SDS011;38924;52.134;4.666;2022-11-20T08:40:27;28.65;;;20.92;;
53036;SDS011;38924;52.134;4.666;2022-11-20T08:42:53;32.22;;;21.30;;
53036;SDS011;38924;52.134;4.666;2022-11-20T08:45:19;31.52;;;20.67;;
53036;SDS011;38924;52.134;4.666;2022-11-20T08:47:45;30.65;;;19.73;;
53036;SDS011;38924;52.134;4.666;2022-11-20T08:50:12;31.35;;;21.48;;
53036;SDS011;38924;52.134;4.666;2022-11-20T08:52:38;33.45;;;21.83;;
53036;SDS011;38924;52.134;4.666;2022-11-20T08:55:04;26.05;;;18.80;;
53036;SDS011;38924;52.134;4.666;2022-11-20T08:57:33;32.63;;;20.83;;
53036;SDS011;38924;52.134;4.666;2022-11-20T08:59:59;28.52;;;19.63;;
53036;SDS011;38924;52.134;4.666;2022-11-20T09:02:25;29.00;;;19.77;;
53036;SDS011;38924;52.134;4.666;2022-11-20T09:04:51;31.73;;;20.58;;
53036;SDS011;38924;52.134;4.666;2022-11-20T09:07:16;29.88;;;21.25;;
53036;SDS011;38924;52.134;4.666;2022-11-20T09:09:42;30.02;;;20.08;;
53036;SDS011;38924;52.134;4.666;2022-11-20T09:12:08;31.83;;;22.15;;
53036;SDS011;38924;52.134;4.666;2022-11-20T09:14:33;31.10;;;21.35;;
53036;SDS011;38924;52.134;4.666;2022-11-20T09:16:59;39.17;;;20.80;;
53036;SDS011;38924;52.134;4.666;2022-11-20T09:19:25;31.95;;;21.25;;
53036;SDS011;38924;52.134;4.666;2022-11-20T09:21:53;28.98;;;20.48;;
53036;SDS011;38924;52.134;4.666;2022-11-20T09:24:19;30.73;;;21.95;;
53036;SDS011;38924;52.134;4.666;2022-11-20T09:26:46;31.05;;;21.23;;
53036;SDS011;38924;52.134;4.666;2022-11-20T09:29:13;28.10;;;20.05;;
53036;SDS011;38924;52.134;4.666;2022-11-20T09:31:38;29.80;;;21.58;;
53036;SDS011;38924;52.134;4.666;2022-11-20T09:34:04;27.63;;;19.45;;
53036;SDS011;38924;52.134;4.666;2022-11-20T09:36:29;32.28;;;21.55;;
53036;SDS011;38924;52.134;4.666;2022-11-20T09:38:55;30.08;;;20.92;;
53036;SDS011;38924;52.134;4.666;2022-11-20T09:41:45;33.53;;;22.50;;
53036;SDS011;38924;52.134;4.666;2022-11-20T09:46:45;31.83;;;21.35;;
53036;SDS011;38924;52.134;4.666;2022-11-20T09:49:58;31.73;;;21.15;;
53036;SDS011;38924;52.134;4.666;2022-11-20T09:52:13;29.67;;;20.38;;
53036;SDS011;38924;52.134;4.666;2022-11-20T09:54:41;30.42;;;21.75;;
53036;SDS011;38924;52.134;4.666;2022-11-20T09:57:09;34.00;;;21.98;;
53036;SDS011;38924;52.134;4.666;2022-11-20T09:59:40;32.13;;;20.92;;
53036;SDS011;38924;52.134;4.666;2022-11-20T10:02:26;30.05;;;20.15;;
53036;SDS011;38924;52.134;4.666;2022-11-20T10:04:56;27.50;;;20.63;;
53036;SDS011;38924;52.134;4.666;2022-11-20T10:07:23;32.08;;;20.73;;
53036;SDS011;38924;52.134;4.666;2022-11-20T10:09:51;32.17;;;20.60;;
53036;SDS011;38924;52.134;4.666;2022-11-20T10:14:52;32.08;;;20.42;;
53036;SDS011;38924;52.134;4.666;2022-11-20T10:19:51;33.55;;;22.52;;
53036;SDS011;38924;52.134;4.666;2022-11-20T10:22:24;32.25;;;21.25;;
53036;SDS011;38924;52.134;4.666;2022-11-20T10:29:47;38.20;;;21.48;;
53036;SDS011;38924;52.134;4.666;2022-11-20T10:32:20;33.75;;;22.42;;
53036;SDS011;38924;52.134;4.666;2022-11-20T10:34:59;32.38;;;22.73;;
53036;SDS011;38924;52.134;4.666;2022-11-20T10:37:26;34.05;;;22.23;;
53036;SDS011;38924;52.134;4.666;2022-11-20T10:42:21;34.97;;;24.50;;
53036;SDS011;38924;52.134;4.666;2022-11-20T10:44:52;35.58;;;24.50;;
53036;SDS011;38924;52.134;4.666;2022-11-20T10:47:30;34.90;;;23.13;;
53036;SDS011;38924;52.134;4.666;2022-11-20T10:49:57;35.58;;;25.45;;
53036;SDS011;38924;52.134;4.666;2022-11-20T10:52:33;39.17;;;26.30;;
53036;SDS011;38924;52.134;4.666;2022-11-20T10:55:19;42.15;;;24.63;;
53036;SDS011;38924;52.134;4.666;2022-11-20T10:57:54;40.33;;;23.73;;
53036;SDS011;38924;52.134;4.666;2022-11-20T11:00:22;37.97;;;25.98;;
53036;SDS011;38924;52.134;4.666;2022-11-20T11:02:49;36.70;;;24.50;;
53036;SDS011;38924;52.134;4.666;2022-11-20T11:07:44;41.17;;;27.17;;
53036;SDS011;38924;52.134;4.666;2022-11-20T11:10:14;44.05;;;27.52;;
53036;SDS011;38924;52.134;4.666;2022-11-20T11:12:42;52.58;;;27.77;;
53036;SDS011;38924;52.134;4.666;2022-11-20T11:15:12;42.28;;;25.50;;
53036;SDS011;38924;52.134;4.666;2022-11-20T11:17:45;40.92;;;27.55;;
53036;SDS011;38924;52.134;4.666;2022-11-20T11:20:15;41.40;;;26.92;;
53036;SDS011;38924;52.134;4.666;2022-11-20T11:22:43;40.95;;;26.90;;
53036;SDS011;38924;52.134;4.666;2022-11-20T11:25:24;49.42;;;29.88;;
53036;SDS011;38924;52.134;4.666;2022-11-20T11:27:50;71.70;;;40.53;;
53036;SDS011;38924;52.134;4.666;2022-11-20T11:30:17;45.70;;;29.88;;
53036;SDS011;38924;52.134;4.666;2022-11-20T11:32:43;44.35;;;28.98;;
53036;SDS011;38924;52.134;4.666;2022-11-20T11:37:45;46.88;;;30.25;;
53036;SDS011;38924;52.134;4.666;2022-11-20T11:40:11;49.30;;;30.25;;
53036;SDS011;38924;52.134;4.666;2022-11-20T11:42:41;50.25;;;29.73;;
53036;SDS011;38924;52.134;4.666;2022-11-20T11:45:11;55.28;;;30.27;;
53036;SDS011;38924;52.134;4.666;2022-11-20T11:52:58;46.53;;;28.95;;
53036;SDS011;38924;52.134;4.666;2022-11-20T11:57:54;53.47;;;31.67;;
53036;SDS011;38924;52.134;4.666;2022-11-20T12:00:21;53.17;;;29.85;;
53036;SDS011;38924;52.134;4.666;2022-11-20T12:07:43;56.85;;;31.92;;
53036;SDS011;38924;52.134;4.666;2022-11-20T12:10:57;55.53;;;32.58;;
53036;SDS011;38924;52.134;4.666;2022-11-20T12:15:48;60.97;;;31.83;;
53036;SDS011;38924;52.134;4.666;2022-11-20T12:18:15;66.53;;;36.47;;
53036;SDS011;38924;52.134;4.666;2022-11-20T12:20:43;69.72;;;34.30;;
53036;SDS011;38924;52.134;4.666;2022-11-20T12:23:15;60.67;;;33.03;;
53036;SDS011;38924;52.134;4.666;2022-11-20T12:25:42;63.08;;;33.50;;
53036;SDS011;38924;52.134;4.666;2022-11-20T12:30:50;61.72;;;34.22;;
53036;SDS011;38924;52.134;4.666;2022-11-20T12:51:48;54.38;;;31.48;;
53036;SDS011;38924;52.134;4.666;2022-11-20T12:57:19;54.85;;;31.50;;
53036;SDS011;38924;52.134;4.666;2022-11-20T13:00:00;61.05;;;32.15;;
53036;SDS011;38924;52.134;4.666;2022-11-20T13:07:40;60.67;;;34.75;;
53036;SDS011;38924;52.134;4.666;2022-11-20T13:10:13;60.58;;;32.97;;
53036;SDS011;38924;52.134;4.666;2022-11-20T13:12:45;66.57;;;32.72;;
53036;SDS011;38924;52.134;4.666;2022-11-20T13:15:21;51.35;;;30.65;;
53036;SDS011;38924;52.134;4.666;2022-11-20T13:17:52;68.70;;;36.30;;
53036;SDS011;38924;52.134;4.666;2022-11-20T13:20:19;65.57;;;36.05;;
53036;SDS011;38924;52.134;4.666;2022-11-20T13:22:46;69.35;;;37.45;;
53036;SDS011;38924;52.134;4.666;2022-11-20T13:25:22;70.65;;;36.75;;
53036;SDS011;38924;52.134;4.666;2022-11-20T13:27:47;70.65;;;37.45;;
53036;SDS011;38924;52.134;4.666;2022-11-20T13:30:17;70.35;;;36.22;;
53036;SDS011;38924;52.134;4.666;2022-11-20T13:38:00;76.35;;;38.55;;
53036;SDS011;38924;52.134;4.666;2022-11-20T13:40:26;89.57;;;41.97;;
53036;SDS011;38924;52.134;4.666;2022-11-20T13:43:08;89.22;;;39.25;;
53036;SDS011;38924;52.134;4.666;2022-11-20T13:45:35;82.00;;;38.95;;
53036;SDS011;38924;52.134;4.666;2022-11-20T13:48:03;87.68;;;40.45;;
53036;SDS011;38924;52.134;4.666;2022-11-20T13:55:54;79.93;;;38.83;;
53036;SDS011;38924;52.134;4.666;2022-11-20T13:58:27;98.28;;;41.17;;
53036;SDS011;38924;52.134;4.666;2022-11-20T14:00:58;93.03;;;43.55;;
53036;SDS011;38924;52.134;4.666;2022-11-20T14:03:26;102.47;;;43.28;;
53036;SDS011;38924;52.134;4.666;2022-11-20T14:05:55;106.30;;;45.47;;
53036;SDS011;38924;52.134;4.666;2022-11-20T14:08:36;105.05;;;43.95;;
53036;SDS011;38924;52.134;4.666;2022-11-20T14:11:17;117.72;;;47.25;;
53036;SDS011;38924;52.134;4.666;2022-11-20T14:14:19;100.85;;;44.47;;
53036;SDS011;38924;52.134;4.666;2022-11-20T14:16:37;101.28;;;43.90;;
53036;SDS011;38924;52.134;4.666;2022-11-20T14:21:47;110.68;;;45.33;;
53036;SDS011;38924;52.134;4.666;2022-11-20T14:24:13;103.93;;;47.95;;
53036;SDS011;38924;52.134;4.666;2022-11-20T14:26:42;104.30;;;47.30;;
53036;SDS011;38924;52.134;4.666;2022-11-20T14:29:16;121.30;;;49.03;;
53036;SDS011;38924;52.134;4.666;2022-11-20T14:31:42;130.13;;;51.65;;
53036;SDS011;38924;52.134;4.666;2022-11-20T14:34:15;116.32;;;49.58;;
53036;SDS011;38924;52.134;4.666;2022-11-20T14:36:41;129.73;;;53.90;;
53036;SDS011;38924;52.134;4.666;2022-11-20T14:39:10;126.95;;;50.40;;
53036;SDS011;38924;52.134;4.666;2022-11-20T14:41:36;147.00;;;56.20;;
53036;SDS011;38924;52.134;4.666;2022-11-20T14:44:02;137.77;;;54.80;;
53036;SDS011;38924;52.134;4.666;2022-11-20T14:46:28;140.38;;;53.60;;
53036;SDS011;38924;52.134;4.666;2022-11-20T14:48:56;149.43;;;55.63;;
53036;SDS011;38924;52.134;4.666;2022-11-20T14:51:23;145.60;;;56.13;;
53036;SDS011;38924;52.134;4.666;2022-11-20T14:53:50;123.35;;;53.38;;
53036;SDS011;38924;52.134;4.666;2022-11-20T14:56:21;149.93;;;55.40;;
53036;SDS011;38924;52.134;4.666;2022-11-20T14:58:58;125.63;;;53.25;;
53036;SDS011;38924;52.134;4.666;2022-11-20T15:01:29;141.60;;;58.42;;
53036;SDS011;38924;52.134;4.666;2022-11-20T15:04:04;136.30;;;56.72;;
53036;SDS011;38924;52.134;4.666;2022-11-20T15:06:30;125.57;;;55.58;;
53036;SDS011;38924;52.134;4.666;2022-11-20T15:08:56;122.15;;;54.25;;
53036;SDS011;38924;52.134;4.666;2022-11-20T15:11:29;133.90;;;55.65;;
53036;SDS011;38924;52.134;4.666;2022-11-20T15:13:55;108.53;;;53.95;;
53036;SDS011;38924;52.134;4.666;2022-11-20T15:16:22;139.40;;;57.47;;
53036;SDS011;38924;52.134;4.666;2022-11-20T15:18:51;132.50;;;57.28;;
53036;SDS011;38924;52.134;4.666;2022-11-20T15:21:18;117.53;;;55.20;;
53036;SDS011;38924;52.134;4.666;2022-11-20T15:23:47;115.22;;;55.63;;
53036;SDS011;38924;52.134;4.666;2022-11-20T15:26:13;142.82;;;59.45;;
53036;SDS011;38924;52.134;4.666;2022-11-20T15:28:41;157.18;;;65.05;;
53036;SDS011;38924;52.134;4.666;2022-11-20T15:31:09;152.05;;;62.30;;
53036;SDS011;38924;52.134;4.666;2022-11-20T15:33:36;123.78;;;56.95;;
53036;SDS011;38924;52.134;4.666;2022-11-20T15:36:02;120.05;;;53.05;;
53036;SDS011;38924;52.134;4.666;2022-11-20T15:38:28;144.52;;;60.83;;
53036;SDS011;38924;52.134;4.666;2022-11-20T15:40:54;143.40;;;58.00;;
53036;SDS011;38924;52.134;4.666;2022-11-20T15:43:21;115.97;;;57.03;;
53036;SDS011;38924;52.134;4.666;2022-11-20T15:45:50;134.35;;;59.28;;
53036;SDS011;38924;52.134;4.666;2022-11-20T15:48:24;134.35;;;60.97;;